KCMI

University of Illinois-Willard Airport

Champaign/Urbana, Illinois, USA
METAR KCMI 210453Z AUTO 10003KT 10SM OVC070 21/21 A2979 RMK AO2 SLP084 T02110211 TSNO
Observed Flight Rules
Aug-21 @ 04:53 UTC (9 hours ago) Visual Flight Rules
Wind Visibility Clouds
100° at 3 knots 10 miles
  • Overcast at 7,000' AGL
Temperatures Readings
Current 21°C / 70°F
Dewpoint 21°C / 70°F
Humidity 100%
Altimeter 29.79" Hg
Pressure 1008.4 hPa
Elevation 228
METAR KCMI 210453Z AUTO 10003KT 10SM OVC070 21/21 A2979 RMK AO2 SLP084 T02110211 TSNO
Observed Flight Rules
Aug-21 @ 04:53 UTC
(9 hours ago)
VFR
Wind Visibility
100° at 3 knots 10 miles
Clouds
  • Overcast at 7,000' AGL
Temperature Dewpoint
21°C / 70°F 21°C / 70°F
Humidity Altimeter Pressure
100% 29.79" Hg 1008.4 hPa